createdAt,value
2022-11-21T00:01:21.445Z,92.63
2022-11-21T00:03:49.081Z,91.60
2022-11-21T00:06:17.328Z,92.42
2022-11-21T00:08:45.074Z,92.24
2022-11-21T00:11:12.725Z,92.08
2022-11-21T00:13:40.749Z,92.27
2022-11-21T00:16:12.562Z,92.61
2022-11-21T00:18:39.900Z,91.91
2022-11-21T00:21:11.371Z,92.16
2022-11-21T00:23:38.368Z,91.67
2022-11-21T00:26:07.143Z,90.98
2022-11-21T00:28:35.369Z,90.70
2022-11-21T00:31:03.689Z,89.92
2022-11-21T00:33:30.885Z,90.31
2022-11-21T00:35:58.001Z,90.32
2022-11-21T00:38:24.907Z,89.81
2022-11-21T00:40:51.914Z,89.79
2022-11-21T00:43:18.805Z,89.59
2022-11-21T00:45:45.789Z,90.33
2022-11-21T00:48:12.732Z,90.37
2022-11-21T00:50:39.679Z,90.36
2022-11-21T00:53:06.625Z,89.82
2022-11-21T00:55:33.534Z,89.81
2022-11-21T00:58:00.457Z,89.78
2022-11-21T01:00:27.458Z,89.81
2022-11-21T01:02:54.447Z,88.97
2022-11-21T01:05:21.435Z,89.10
2022-11-21T01:07:51.550Z,87.92
2022-11-21T01:10:18.710Z,88.64
2022-11-21T01:12:45.754Z,89.08
2022-11-21T01:15:12.743Z,88.53
2022-11-21T01:17:39.689Z,88.69
2022-11-21T01:20:07.685Z,88.56
2022-11-21T01:22:34.654Z,88.64
2022-11-21T01:25:01.601Z,88.79
2022-11-21T01:27:28.529Z,88.22
2022-11-21T01:29:55.474Z,88.56
2022-11-21T01:32:22.376Z,87.78
2022-11-21T01:34:49.321Z,88.53
2022-11-21T01:37:16.266Z,88.96
2022-11-21T01:39:43.162Z,88.91
2022-11-21T01:42:13.061Z,88.90
2022-11-21T01:44:54.463Z,88.89
2022-11-21T01:47:22.855Z,88.83
2022-11-21T01:49:52.325Z,89.07
2022-11-21T01:52:30.462Z,88.89
2022-11-21T01:55:07.108Z,88.78
2022-11-21T01:57:44.179Z,89.70
2022-11-21T02:00:23.217Z,89.39
2022-11-21T02:02:56.900Z,89.79
2022-11-21T02:05:30.583Z,89.28
2022-11-21T02:08:14.618Z,89.03
2022-11-21T02:11:04.124Z,89.29
2022-11-21T02:13:31.114Z,88.98
2022-11-21T02:15:58.665Z,89.86
2022-11-21T02:18:25.577Z,90.66
2022-11-21T02:21:05.279Z,91.05
2022-11-21T02:24:03.818Z,90.75
2022-11-21T02:26:31.206Z,90.38
2022-11-21T02:28:58.641Z,89.64
2022-11-21T02:31:55.646Z,90.02
2022-11-21T02:38:03.131Z,90.28
2022-11-21T02:42:05.097Z,89.65
2022-11-21T03:30:45.106Z,91.28
2022-11-21T04:24:41.666Z,91.80
2022-11-21T04:42:01.995Z,92.46
2022-11-21T04:49:19.852Z,91.37
2022-11-21T04:53:21.500Z,91.16
2022-11-21T04:59:17.490Z,91.06
2022-11-21T05:02:24.057Z,90.39
2022-11-21T05:06:41.354Z,90.33
2022-11-21T05:08:22.360Z,90.53
2022-11-21T05:11:27.520Z,91.10
2022-11-21T05:14:04.951Z,90.84
2022-11-21T05:17:08.002Z,91.15
2022-11-21T05:19:41.555Z,91.49
2022-11-21T05:22:26.311Z,91.79
2022-11-21T05:25:07.445Z,91.68
2022-11-21T05:27:57.315Z,92.43
2022-11-21T05:31:40.099Z,93.15
2022-11-21T05:33:56.700Z,92.75
2022-11-21T05:36:37.933Z,92.30
2022-11-21T05:43:08.064Z,93.09
2022-11-21T05:52:55.278Z,92.44
2022-11-21T05:56:47.241Z,93.27
2022-11-21T06:02:20.773Z,92.77
2022-11-21T06:08:34.667Z,93.30
2022-11-21T06:18:27.341Z,92.42
2022-11-21T06:25:37.421Z,91.93
2022-11-21T06:30:11.034Z,92.42
2022-11-21T06:32:01.686Z,92.06
2022-11-21T06:35:55.619Z,90.04
2022-11-21T06:38:35.052Z,89.06
2022-11-21T06:41:52.981Z,89.81
2022-11-21T06:45:11.742Z,89.06
2022-11-21T06:52:18.350Z,88.21
2022-11-21T06:55:12.941Z,87.85
2022-11-21T06:58:26.896Z,85.63
2022-11-21T07:01:17.224Z,85.55
2022-11-21T07:04:40.760Z,86.25
2022-11-21T07:08:25.332Z,85.22
2022-11-21T07:11:29.564Z,83.58
2022-11-21T07:14:28.719Z,82.02
2022-11-21T07:17:12.982Z,80.06
2022-11-21T07:19:51.938Z,76.93
2022-11-21T07:22:55.911Z,76.99
2022-11-21T07:26:30.642Z,73.85
2022-11-21T07:30:12.071Z,73.05
2022-11-21T07:32:50.814Z,71.31
2022-11-21T07:38:33.761Z,68.79
2022-11-21T07:41:23.688Z,67.32
2022-11-21T07:44:51.160Z,66.04
2022-11-21T08:11:15.519Z,55.33
2022-11-21T08:23:35.973Z,54.17
2022-11-21T08:26:31.583Z,53.32
2022-11-21T08:29:38.159Z,52.83
2022-11-21T08:33:08.240Z,52.11
2022-11-21T08:37:02.180Z,50.96
2022-11-21T10:04:06.264Z,47.69
2022-11-21T10:07:04.021Z,50.03
2022-11-21T10:10:20.970Z,52.14
2022-11-21T10:13:15.236Z,52.14
2022-11-21T10:16:18.771Z,49.83
2022-11-21T10:19:29.879Z,50.12
2022-11-21T10:22:23.665Z,50.08
2022-11-21T10:25:03.225Z,51.32
2022-11-21T10:28:10.998Z,51.44
2022-11-21T10:30:44.224Z,51.74
2022-11-21T10:33:36.358Z,52.57
2022-11-21T10:36:33.661Z,51.03
2022-11-21T10:39:14.668Z,49.39
2022-11-21T10:41:54.370Z,49.62
2022-11-21T10:44:50.551Z,49.42
2022-11-21T10:47:27.925Z,49.51
2022-11-21T10:50:20.641Z,49.30
2022-11-21T10:53:25.349Z,51.02
2022-11-21T10:56:17.610Z,52.39
2022-11-21T10:58:49.964Z,52.06
2022-11-21T11:01:31.702Z,53.41
2022-11-21T11:04:26.683Z,53.46
2022-11-21T11:06:54.540Z,52.90
2022-11-21T11:09:30.266Z,51.96
2022-11-21T11:12:50.993Z,52.29
2022-11-21T11:15:26.764Z,51.94
2022-11-21T11:18:02.734Z,52.92
2022-11-21T11:20:41.434Z,54.64
2022-11-21T11:23:20.645Z,54.94
2022-11-21T11:25:51.047Z,54.49
2022-11-21T11:28:19.379Z,55.13
2022-11-21T11:30:49.069Z,55.23
2022-11-21T11:33:37.070Z,56.21
2022-11-21T11:36:33.988Z,56.79
2022-11-21T11:39:09.403Z,57.67
2022-11-21T11:42:45.126Z,57.52
2022-11-21T11:45:30.279Z,57.93
2022-11-21T11:48:19.847Z,59.19
2022-11-21T11:51:04.490Z,60.14
2022-11-21T11:53:44.885Z,60.20
2022-11-21T11:56:43.743Z,60.83
2022-11-21T11:59:18.889Z,62.36
2022-11-21T12:02:11.642Z,63.55
2022-11-21T12:04:50.976Z,63.85
2022-11-21T12:08:33.082Z,63.88
2022-11-21T12:10:28.672Z,63.80
2022-11-21T12:13:16.382Z,63.63
2022-11-21T12:15:52.626Z,64.84
2022-11-21T12:18:19.582Z,64.64
2022-11-21T12:21:15.364Z,65.00
2022-11-21T12:23:55.942Z,65.77
2022-11-21T12:27:10.940Z,66.30
2022-11-21T12:30:16.073Z,66.66
2022-11-21T12:33:17.646Z,66.00
2022-11-21T12:36:16.269Z,67.16
2022-11-21T12:39:03.375Z,68.36
2022-11-21T12:42:20.226Z,70.50
2022-11-21T12:45:43.033Z,69.46
2022-11-21T12:48:44.094Z,68.52
2022-11-21T12:51:38.922Z,65.89
2022-11-21T12:54:40.957Z,66.07
2022-11-21T12:57:11.767Z,68.16
2022-11-21T13:00:12.322Z,68.22
2022-11-21T13:03:04.003Z,68.78
2022-11-21T13:05:40.766Z,69.32
2022-11-21T13:08:24.730Z,69.62
2022-11-21T13:11:31.136Z,69.07
2022-11-21T13:14:27.374Z,69.58
2022-11-21T13:17:26.355Z,70.63
2022-11-21T13:20:02.303Z,71.06
2022-11-21T13:22:38.115Z,72.90
2022-11-21T13:25:39.587Z,72.73
2022-11-21T13:28:18.769Z,73.62
2022-11-21T13:30:56.789Z,73.84
2022-11-21T13:33:36.044Z,73.64
2022-11-21T13:36:12.054Z,73.98
2022-11-21T13:38:53.969Z,73.44
2022-11-21T13:41:54.747Z,73.58
2022-11-21T13:44:30.698Z,73.48
2022-11-21T13:47:15.047Z,73.25
2022-11-21T13:50:04.692Z,73.13
2022-11-21T13:52:43.951Z,72.82
2022-11-21T13:56:06.238Z,72.67
2022-11-21T13:58:53.853Z,73.21
2022-11-21T14:01:36.166Z,72.83
2022-11-21T14:04:44.831Z,73.93
2022-11-21T14:07:34.029Z,73.69
2022-11-21T14:10:26.737Z,74.75
2022-11-21T14:12:56.063Z,75.53
2022-11-21T14:16:16.483Z,74.01
2022-11-21T14:18:47.179Z,75.37
2022-11-21T14:21:29.796Z,75.40
2022-11-21T14:24:00.222Z,74.49
2022-11-21T14:26:31.098Z,75.30
2022-11-21T14:29:28.164Z,75.38
2022-11-21T14:31:56.078Z,75.73
2022-11-21T14:34:29.014Z,75.56
2022-11-21T14:37:00.550Z,75.57
2022-11-21T14:39:38.091Z,75.43
2022-11-21T14:42:16.409Z,75.73
2022-11-21T14:44:44.135Z,76.49
2022-11-21T14:47:26.211Z,77.04
2022-11-21T14:50:00.943Z,77.02
2022-11-21T14:52:33.990Z,76.64
2022-11-21T14:55:28.967Z,75.45
2022-11-21T14:57:55.890Z,75.54
2022-11-21T15:00:58.076Z,76.74
2022-11-21T15:03:21.596Z,76.55
2022-11-21T15:06:07.268Z,77.69
2022-11-21T15:11:37.293Z,78.05
2022-11-21T15:14:17.744Z,79.12
2022-11-21T15:16:52.959Z,80.01
2022-11-21T15:19:32.670Z,82.32
2022-11-21T15:22:04.731Z,81.49
2022-11-21T15:24:43.374Z,81.23
2022-11-21T15:27:28.695Z,81.21
2022-11-21T15:30:12.409Z,81.16
2022-11-21T15:34:12.229Z,82.81
2022-11-21T15:36:37.447Z,83.16
2022-11-21T15:39:07.236Z,82.44
2022-11-21T15:41:36.513Z,82.11
2022-11-21T15:44:03.363Z,82.71
2022-11-21T15:46:33.478Z,82.99
2022-11-21T15:49:30.863Z,82.80
2022-11-21T15:52:09.938Z,83.61
2022-11-21T15:54:37.263Z,83.67
2022-11-21T15:57:04.209Z,83.52
2022-11-21T15:59:31.778Z,83.82
2022-11-21T16:01:58.907Z,83.67
2022-11-21T16:04:26.375Z,83.71
2022-11-21T16:06:56.436Z,84.83
2022-11-21T16:09:23.405Z,84.47
2022-11-21T16:11:50.414Z,84.62
2022-11-21T16:14:20.787Z,84.67
2022-11-21T16:16:47.956Z,85.62
2022-11-21T16:19:15.751Z,86.09
2022-11-21T16:21:43.299Z,85.51
2022-11-21T16:24:10.399Z,85.83
2022-11-21T16:26:37.451Z,85.97
2022-11-21T16:29:07.449Z,86.44
2022-11-21T16:31:34.785Z,86.40
2022-11-21T16:34:01.917Z,87.10
2022-11-21T16:36:31.185Z,86.22
2022-11-21T16:39:05.229Z,86.28
2022-11-21T16:41:35.353Z,87.12
2022-11-21T16:44:02.403Z,86.64
2022-11-21T16:46:29.357Z,88.61
2022-11-21T16:49:02.197Z,88.78
2022-11-21T16:51:30.279Z,88.20
2022-11-21T16:54:00.560Z,87.75
2022-11-21T16:56:28.810Z,88.26
2022-11-21T16:58:56.222Z,88.25
2022-11-21T17:01:26.183Z,88.05
2022-11-21T17:03:53.360Z,87.44
2022-11-21T17:06:28.451Z,87.98
2022-11-21T17:08:55.743Z,88.95
2022-11-21T17:11:28.249Z,88.81
2022-11-21T17:13:58.628Z,88.33
2022-11-21T17:16:25.694Z,88.42
2022-11-21T17:18:58.166Z,88.17
2022-11-21T17:21:26.318Z,88.02
2022-11-21T17:23:53.697Z,88.92
2022-11-21T17:26:24.138Z,89.31
2022-11-21T17:28:56.203Z,89.65
2022-11-21T17:31:23.611Z,89.26
2022-11-21T17:33:51.707Z,89.81
2022-11-21T17:36:21.697Z,90.28
2022-11-21T17:38:49.276Z,89.90
2022-11-21T17:41:18.597Z,90.25
2022-11-21T17:43:47.178Z,90.11
2022-11-21T17:46:20.038Z,90.45
2022-11-21T17:48:54.897Z,90.12
2022-11-21T17:51:29.338Z,91.15
2022-11-21T17:53:57.154Z,91.44
2022-11-21T17:56:28.867Z,92.22
2022-11-21T17:58:56.433Z,91.18
2022-11-21T18:01:23.745Z,90.73
2022-11-21T18:04:10.130Z,91.49
2022-11-21T18:06:40.641Z,91.46
2022-11-21T18:09:10.870Z,91.06
2022-11-21T18:11:40.299Z,92.09
2022-11-21T18:14:10.058Z,92.32
2022-11-21T18:16:39.524Z,92.60
2022-11-21T18:19:07.589Z,93.21
2022-11-21T18:21:38.197Z,93.17
2022-11-21T18:24:05.590Z,93.45
2022-11-21T18:26:37.004Z,93.00
2022-11-21T18:31:54.593Z,93.40
2022-11-21T18:34:21.535Z,93.18
2022-11-21T18:36:48.461Z,93.20
2022-11-21T18:39:26.327Z,93.66
2022-11-21T18:41:53.364Z,94.08
2022-11-21T18:44:22.340Z,94.04
2022-11-21T18:46:49.801Z,94.09
2022-11-21T18:49:16.833Z,93.89
2022-11-21T18:51:44.189Z,93.34
2022-11-21T18:54:11.681Z,93.47
2022-11-21T18:56:39.875Z,93.57
2022-11-21T18:59:07.593Z,93.45
2022-11-21T19:01:37.089Z,93.35
2022-11-21T19:04:04.935Z,92.22
2022-11-21T19:06:32.548Z,91.24
2022-11-21T19:08:59.716Z,90.31
2022-11-21T19:11:29.188Z,89.34
2022-11-21T19:13:58.057Z,88.44
2022-11-21T19:16:27.455Z,89.94
2022-11-21T19:21:42.581Z,91.28
2022-11-21T19:24:14.661Z,91.84
2022-11-21T19:26:42.956Z,91.06
2022-11-21T19:29:10.761Z,91.50
2022-11-21T19:31:44.701Z,91.82
2022-11-21T19:34:16.708Z,92.05
2022-11-21T19:36:44.965Z,91.66
2022-11-21T19:39:12.709Z,92.10
2022-11-21T19:41:39.760Z,92.59
2022-11-21T19:44:06.731Z,92.47
2022-11-21T19:46:38.151Z,92.58
2022-11-21T19:49:06.695Z,92.33
2022-11-21T19:51:41.105Z,93.60
2022-11-21T19:54:11.119Z,94.36
2022-11-21T19:56:38.192Z,94.34
2022-11-21T19:59:05.649Z,93.96
2022-11-21T20:01:34.865Z,93.90
2022-11-21T20:04:04.245Z,93.67
2022-11-21T20:06:41.365Z,93.75
2022-11-21T20:09:10.964Z,93.50
2022-11-21T20:11:40.963Z,93.58
2022-11-21T20:14:08.943Z,93.44
2022-11-21T20:16:39.571Z,93.50
2022-11-21T20:19:10.544Z,93.83
2022-11-21T20:21:38.998Z,94.63
2022-11-21T20:24:07.422Z,94.69
2022-11-21T20:26:35.726Z,94.33
2022-11-21T20:29:04.187Z,94.52
2022-11-21T20:31:37.300Z,94.03
2022-11-21T20:34:13.558Z,94.37
2022-11-21T20:36:41.607Z,94.10
2022-11-21T20:39:16.939Z,94.61
2022-11-21T20:41:45.762Z,94.84
2022-11-21T20:45:25.736Z,94.94
2022-11-21T20:47:07.469Z,95.14
2022-11-21T20:49:34.971Z,95.15
2022-11-21T20:54:48.879Z,95.63
2022-11-21T20:57:15.932Z,95.61
2022-11-21T20:59:43.276Z,96.16
2022-11-21T21:02:14.348Z,95.73
2022-11-21T21:04:42.272Z,95.90
2022-11-21T21:07:09.732Z,96.03
2022-11-21T21:09:36.774Z,95.59
2022-11-21T21:12:05.099Z,96.65
2022-11-21T21:14:32.073Z,96.13
2022-11-21T21:16:59.002Z,96.60
2022-11-21T21:19:26.002Z,95.82
2022-11-21T21:21:52.942Z,95.82
2022-11-21T21:24:20.030Z,96.46
2022-11-21T21:26:49.001Z,96.42
2022-11-21T21:29:19.747Z,96.84
2022-11-21T21:31:51.497Z,96.72
2022-11-21T21:34:21.181Z,97.80
2022-11-21T21:36:49.011Z,97.78
2022-11-21T21:39:15.975Z,97.67
2022-11-21T21:41:46.804Z,97.51
2022-11-21T21:44:14.920Z,97.50
2022-11-21T21:46:42.155Z,97.84
2022-11-21T21:49:09.127Z,98.03
2022-11-21T21:51:37.470Z,98.19
2022-11-21T21:54:05.131Z,98.26
2022-11-21T21:56:32.662Z,97.77
2022-11-21T21:59:00.043Z,97.84
2022-11-21T22:01:32.256Z,98.05
2022-11-21T22:04:02.673Z,97.69
2022-11-21T22:06:32.836Z,97.21
2022-11-21T22:08:59.769Z,97.10
2022-11-21T22:11:33.008Z,96.93
2022-11-21T22:14:03.969Z,97.12
2022-11-21T22:16:31.780Z,96.67
2022-11-21T22:18:59.189Z,96.75
2022-11-21T22:21:32.998Z,96.59
2022-11-21T22:24:24.696Z,96.21
2022-11-21T22:26:52.338Z,96.45
2022-11-21T22:29:19.313Z,96.59
2022-11-21T22:31:46.403Z,97.15
2022-11-21T22:34:14.272Z,97.63
2022-11-21T22:36:41.762Z,97.27
2022-11-21T22:39:09.140Z,97.06
2022-11-21T22:41:36.194Z,97.27
2022-11-21T22:44:03.359Z,96.86
2022-11-21T22:46:31.344Z,96.71
2022-11-21T22:48:59.334Z,97.45
2022-11-21T22:51:29.696Z,97.18
2022-11-21T22:53:57.519Z,97.03
2022-11-21T22:56:25.758Z,96.53
2022-11-21T22:58:53.154Z,96.98
2022-11-21T23:01:23.587Z,97.48
2022-11-21T23:03:51.327Z,97.10
2022-11-21T23:06:21.973Z,96.64
2022-11-21T23:08:49.751Z,96.34
2022-11-21T23:11:22.723Z,96.26
2022-11-21T23:13:50.536Z,96.71
2022-11-21T23:16:18.597Z,96.69
2022-11-21T23:18:45.933Z,96.58
2022-11-21T23:21:14.201Z,96.62
2022-11-21T23:23:41.463Z,96.54
2022-11-21T23:26:08.413Z,97.02
2022-11-21T23:28:35.309Z,96.58
2022-11-21T23:31:02.686Z,97.32
2022-11-21T23:33:29.751Z,97.02
2022-11-21T23:35:56.775Z,96.84
2022-11-21T23:38:23.911Z,97.19
2022-11-21T23:40:50.992Z,97.33
2022-11-21T23:43:18.984Z,97.60
2022-11-21T23:45:51.621Z,97.15
2022-11-21T23:48:19.788Z,96.91
2022-11-21T23:50:48.152Z,96.64
2022-11-21T23:53:15.203Z,96.38
2022-11-21T23:55:43.877Z,96.93
2022-11-21T23:58:12.949Z,97.07
